Time;durP1;ratioP1;P1;durP2;ratioP2;P2;SDS_P1;SDS_P2;PMS_P1;PMS_P2;Temp;Humidity;BMP_temperature;BMP_pressure;BME280_temperature;BME280_humidity;BME280_pressure;Samples;Min_cycle;Max_cycle;Signal;HPM_P1;HPM_P2
2021/06/09 00:00:04;;;;;;;11.20;9.30;;;17.10;99.90;;;;;;4993939;28;20582;-53
2021/06/09 00:02:30;;;;;;;12.03;9.70;;;17.20;99.90;;;;;;4994122;28;20450;-51
2021/06/09 00:04:57;;;;;;;11.90;9.77;;;17.20;99.90;;;;;;4993265;28;20458;-51
2021/06/09 00:07:23;;;;;;;11.87;9.00;;;17.30;99.90;;;;;;4995733;28;20457;-51
2021/06/09 00:09:51;;;;;;;10.77;9.67;;;17.30;99.90;;;;;;5000200;28;20548;-51
2021/06/09 00:12:18;;;;;;;11.10;8.90;;;17.30;99.90;;;;;;4992881;28;20457;-51
2021/06/09 00:14:44;;;;;;;9.20;8.30;;;17.30;99.90;;;;;;4995979;28;20447;-51
2021/06/09 00:17:11;;;;;;;13.00;10.10;;;17.30;99.90;;;;;;4994195;28;20450;-51
2021/06/09 00:19:38;;;;;;;17.30;10.20;;;17.20;99.90;;;;;;5012465;28;20478;-51
2021/06/09 00:22:05;;;;;;;12.13;9.90;;;16.90;99.90;;;;;;5012351;28;20931;-51
2021/06/09 00:24:32;;;;;;;11.70;9.53;;;16.80;99.90;;;;;;5012640;28;20490;-51
2021/06/09 00:27:00;;;;;;;10.40;9.30;;;16.90;99.90;;;;;;4997637;28;20463;-51
2021/06/09 00:29:27;;;;;;;13.63;10.23;;;17.00;99.90;;;;;;5012000;28;20473;-50
2021/06/09 00:31:53;;;;;;;11.23;9.80;;;17.00;99.90;;;;;;5012110;28;20504;-50
2021/06/09 00:34:20;;;;;;;12.27;9.70;;;17.00;99.90;;;;;;5012182;28;20442;-51
2021/06/09 00:36:46;;;;;;;12.70;9.73;;;17.00;99.90;;;;;;5012246;28;20449;-51
2021/06/09 00:39:13;;;;;;;12.00;10.30;;;17.00;99.90;;;;;;5011795;28;20528;-50
2021/06/09 00:41:39;;;;;;;10.70;9.50;;;17.10;99.90;;;;;;5012002;28;20454;-51
2021/06/09 00:44:07;;;;;;;11.17;9.57;;;17.00;99.90;;;;;;4995503;28;20853;-51
2021/06/09 00:46:36;;;;;;;11.17;8.67;;;17.00;99.90;;;;;;4992497;28;20453;-51
2021/06/09 00:49:03;;;;;;;10.27;8.67;;;17.10;99.90;;;;;;5007905;28;20486;-51
2021/06/09 00:51:29;;;;;;;11.47;9.23;;;17.20;99.90;;;;;;5011927;28;20453;-51
2021/06/09 00:53:58;;;;;;;13.67;10.17;;;17.10;99.90;;;;;;5011735;28;20457;-50
2021/06/09 00:56:25;;;;;;;11.17;9.27;;;17.00;99.90;;;;;;5011692;28;20966;-52
2021/06/09 00:58:53;;;;;;;11.57;8.80;;;17.00;99.90;;;;;;5010476;28;20478;-51
2021/06/09 01:01:28;;;;;;;8.83;7.93;;;17.10;99.90;;;;;;4991855;28;20459;-51
2021/06/09 01:03:54;;;;;;;17.17;9.00;;;17.10;99.90;;;;;;4991860;28;20482;-51
2021/06/09 01:06:24;;;;;;;11.23;9.70;;;17.20;99.90;;;;;;5011214;28;20456;-52
2021/06/09 01:08:52;;;;;;;13.00;9.73;;;17.20;99.90;;;;;;5011163;28;20504;-52
2021/06/09 01:11:20;;;;;;;13.90;9.17;;;17.10;99.90;;;;;;5010678;28;20510;-51
2021/06/09 01:13:48;;;;;;;11.80;9.27;;;17.10;99.90;;;;;;5004114;28;20457;-52
2021/06/09 01:16:16;;;;;;;13.10;9.43;;;17.20;99.90;;;;;;4992049;28;20454;-51
2021/06/09 01:18:44;;;;;;;10.20;8.20;;;17.30;99.90;;;;;;5003973;28;20473;-51
2021/06/09 01:21:11;;;;;;;9.90;8.30;;;17.30;99.90;;;;;;5010567;28;20445;-51
2021/06/09 01:23:39;;;;;;;11.37;10.00;;;17.30;99.90;;;;;;4993782;28;20906;-51
2021/06/09 01:26:08;;;;;;;9.53;8.40;;;17.30;99.90;;;;;;4995196;28;20449;-51
2021/06/09 01:28:35;;;;;;;14.10;9.90;;;17.20;99.90;;;;;;5011136;28;20564;-51
2021/06/09 01:31:02;;;;;;;10.73;9.37;;;17.20;99.90;;;;;;5006447;28;20458;-51
2021/06/09 01:33:29;;;;;;;9.77;8.60;;;17.20;99.90;;;;;;4991628;28;20457;-52
2021/06/09 01:35:56;;;;;;;9.77;8.57;;;17.10;99.90;;;;;;4991669;28;20454;-51
2021/06/09 01:38:23;;;;;;;10.93;9.33;;;17.20;99.90;;;;;;5000603;28;21060;-51
2021/06/09 01:40:51;;;;;;;11.77;9.83;;;17.30;99.90;;;;;;5010910;28;20893;-52
2021/06/09 01:43:17;;;;;;;13.70;11.03;;;17.30;99.90;;;;;;5001687;28;20855;-51
2021/06/09 01:45:44;;;;;;;10.63;9.07;;;17.10;99.90;;;;;;4997186;28;20985;-52
2021/06/09 01:48:12;;;;;;;9.67;8.67;;;17.20;99.90;;;;;;5010615;28;20527;-51
2021/06/09 01:50:40;;;;;;;9.23;8.30;;;17.20;99.90;;;;;;5010873;28;20449;-52
2021/06/09 01:53:07;;;;;;;12.67;9.37;;;17.20;99.90;;;;;;5010865;28;20450;-51
2021/06/09 01:55:36;;;;;;;10.97;8.90;;;17.30;99.90;;;;;;5010871;28;20453;-51
2021/06/09 01:58:05;;;;;;;10.63;8.67;;;17.20;99.90;;;;;;5010269;28;20456;-50
2021/06/09 02:00:34;;;;;;;12.07;10.20;;;17.30;99.90;;;;;;4999399;28;20454;-51
2021/06/09 02:03:01;;;;;;;11.10;8.00;;;17.30;99.90;;;;;;4991051;28;20516;-51
2021/06/09 02:05:28;;;;;;;13.90;9.53;;;17.20;99.90;;;;;;4991331;28;20451;-52
2021/06/09 02:07:57;;;;;;;13.37;10.70;;;17.10;99.90;;;;;;4995503;28;20450;-51
2021/06/09 02:10:24;;;;;;;12.70;9.80;;;17.00;99.90;;;;;;5010810;28;20449;-51
2021/06/09 02:12:56;;;;;;;11.87;9.90;;;17.00;99.90;;;;;;5010493;28;20801;-52
2021/06/09 02:15:25;;;;;;;13.90;10.67;;;17.10;99.90;;;;;;5010902;28;20908;-51
2021/06/09 02:17:57;;;;;;;14.90;10.70;;;17.20;99.90;;;;;;4995776;28;20446;-51
2021/06/09 02:20:25;;;;;;;10.83;9.43;;;17.20;99.90;;;;;;5010797;28;20878;-51
2021/06/09 02:22:53;;;;;;;11.67;10.00;;;17.20;99.90;;;;;;5010457;28;20525;-51
2021/06/09 02:25:19;;;;;;;12.80;9.17;;;17.20;99.90;;;;;;5009332;28;20453;-52
2021/06/09 02:27:46;;;;;;;13.17;9.87;;;17.10;99.90;;;;;;5007102;28;20497;-52
2021/06/09 02:30:14;;;;;;;12.90;9.23;;;17.00;99.90;;;;;;5010910;28;20450;-51
2021/06/09 02:32:44;;;;;;;10.00;9.00;;;17.00;99.90;;;;;;5006592;28;20458;-51
2021/06/09 02:35:16;;;;;;;15.20;9.57;;;17.00;99.90;;;;;;4994493;28;20818;-51
2021/06/09 02:37:44;;;;;;;10.97;9.00;;;17.00;99.90;;;;;;5010723;28;20461;-51
2021/06/09 02:40:12;;;;;;;11.20;9.30;;;17.00;99.90;;;;;;5008303;28;20549;-52
2021/06/09 02:42:39;;;;;;;11.23;9.50;;;17.00;99.90;;;;;;4994414;28;20450;-51
2021/06/09 02:45:08;;;;;;;11.33;9.20;;;16.90;99.90;;;;;;5009863;28;20481;-51
2021/06/09 02:47:38;;;;;;;11.13;9.70;;;16.90;99.90;;;;;;5013493;28;20449;-51
2021/06/09 02:50:08;;;;;;;11.30;9.60;;;16.90;99.90;;;;;;5002533;28;20627;-51
2021/06/09 02:52:43;;;;;;;12.17;9.97;;;16.90;99.90;;;;;;4994181;28;21043;-51
2021/06/09 02:55:16;;;;;;;14.60;10.63;;;16.80;99.90;;;;;;5002932;28;20970;-51
2021/06/09 02:57:52;;;;;;;11.97;9.90;;;17.00;99.90;;;;;;5014016;28;20449;-50
2021/06/09 03:00:24;;;;;;;9.70;8.70;;;17.00;99.90;;;;;;5013792;28;20445;-51
2021/06/09 03:03:00;;;;;;;10.50;9.40;;;17.00;99.90;;;;;;5013446;28;20970;-51
2021/06/09 03:05:34;;;;;;;9.80;8.73;;;17.00;99.90;;;;;;5013744;28;21014;-51
2021/06/09 03:08:06;;;;;;;10.00;8.70;;;16.90;99.90;;;;;;5011991;28;20927;-51
2021/06/09 03:10:45;;;;;;;10.57;8.90;;;16.80;99.90;;;;;;5013180;28;20462;-51
2021/06/09 03:13:25;;;;;;;10.77;9.20;;;16.90;99.90;;;;;;5013253;28;20449;-51
2021/06/09 03:15:59;;;;;;;14.07;9.17;;;16.90;99.90;;;;;;5013718;28;20460;-51
2021/06/09 03:18:29;;;;;;;9.60;8.60;;;16.90;99.90;;;;;;5013068;28;20539;-51
2021/06/09 03:21:01;;;;;;;9.17;8.27;;;16.90;99.90;;;;;;5013240;28;20465;-51
2021/06/09 03:23:39;;;;;;;10.13;8.43;;;16.90;99.90;;;;;;4997367;28;21004;-51
2021/06/09 03:26:11;;;;;;;12.90;9.93;;;17.00;99.90;;;;;;4995087;28;20453;-51
2021/06/09 03:28:46;;;;;;;10.70;9.60;;;16.90;99.90;;;;;;5011552;28;20473;-51
2021/06/09 03:31:19;;;;;;;11.10;9.23;;;16.90;99.90;;;;;;5013112;28;20450;-51
2021/06/09 03:33:51;;;;;;;11.63;8.70;;;17.00;99.90;;;;;;5013249;28;20485;-51
2021/06/09 03:36:25;;;;;;;11.53;9.20;;;17.00;99.90;;;;;;4997431;28;20458;-51
2021/06/09 03:38:57;;;;;;;9.97;8.47;;;16.90;99.90;;;;;;5012907;28;20469;-51
2021/06/09 03:41:33;;;;;;;10.07;8.97;;;17.00;99.90;;;;;;5012801;28;20449;-51
2021/06/09 03:44:00;;;;;;;9.70;8.70;;;17.00;99.90;;;;;;5007173;28;20478;-51
2021/06/09 03:46:29;;;;;;;15.33;10.20;;;17.00;99.90;;;;;;5001016;28;20819;-51
2021/06/09 03:48:57;;;;;;;11.90;9.67;;;17.00;99.90;;;;;;5012133;28;20477;-51
2021/06/09 03:51:28;;;;;;;13.40;10.20;;;17.10;99.90;;;;;;5011488;28;20492;-51
2021/06/09 03:53:59;;;;;;;10.77;9.30;;;17.00;99.90;;;;;;5004502;28;20451;-51
2021/06/09 03:56:29;;;;;;;14.33;10.10;;;17.00;99.90;;;;;;4999444;28;20951;-51
2021/06/09 03:58:59;;;;;;;17.23;11.03;;;17.00;99.90;;;;;;5004128;28;20470;-51
2021/06/09 04:01:29;;;;;;;13.73;10.80;;;17.00;99.90;;;;;;4992709;28;20449;-51
2021/06/09 04:04:00;;;;;;;14.83;11.13;;;17.10;99.90;;;;;;4993157;28;20483;-51
2021/06/09 04:06:28;;;;;;;12.87;10.13;;;17.10;99.90;;;;;;5006322;28;20485;-51
2021/06/09 04:08:59;;;;;;;14.90;12.03;;;17.10;99.90;;;;;;5007023;28;21154;-51
2021/06/09 04:11:27;;;;;;;25.13;14.33;;;17.00;99.90;;;;;;5010545;28;20461;-52
2021/06/09 04:13:56;;;;;;;17.20;12.83;;;16.70;99.90;;;;;;5011903;28;20446;-52
2021/06/09 04:16:26;;;;;;;16.60;12.50;;;16.50;99.90;;;;;;5011620;28;20536;-50
2021/06/09 04:18:54;;;;;;;16.07;12.47;;;16.50;99.90;;;;;;5012266;28;20470;-51
2021/06/09 04:21:21;;;;;;;18.17;13.90;;;16.60;99.90;;;;;;5011872;28;20453;-51
2021/06/09 04:23:49;;;;;;;17.97;13.43;;;16.60;99.90;;;;;;5010302;28;20840;-51
2021/06/09 04:26:17;;;;;;;18.57;13.03;;;16.60;99.90;;;;;;5012211;28;20501;-51
2021/06/09 04:28:44;;;;;;;19.97;13.83;;;16.70;99.90;;;;;;5011765;28;20484;-51
2021/06/09 04:31:14;;;;;;;15.00;10.97;;;16.80;99.90;;;;;;5011988;28;20442;-51
2021/06/09 04:33:40;;;;;;;16.90;13.40;;;16.90;99.90;;;;;;5011613;28;20481;-51
2021/06/09 04:36:12;;;;;;;21.30;13.50;;;17.00;99.90;;;;;;5011604;28;20484;-51
2021/06/09 04:38:39;;;;;;;15.93;12.40;;;17.10;99.90;;;;;;5011201;28;20994;-50
2021/06/09 04:41:07;;;;;;;13.87;11.13;;;17.10;99.90;;;;;;5007839;28;20489;-52
2021/06/09 04:43:34;;;;;;;15.77;10.57;;;17.20;99.90;;;;;;5009758;28;20477;-51
2021/06/09 04:46:01;;;;;;;11.93;10.63;;;17.10;99.90;;;;;;5007413;28;20566;-51
2021/06/09 04:48:28;;;;;;;13.10;10.27;;;17.00;99.90;;;;;;5010822;28;20473;-51
2021/06/09 04:50:55;;;;;;;16.27;9.33;;;17.20;99.90;;;;;;5033513;22;20496;-49
2021/06/09 04:53:22;;;;;;;13.13;10.43;;;17.30;99.90;;;;;;5015962;28;20831;-49
2021/06/09 04:55:51;;;;;;;10.97;9.77;;;17.40;99.90;;;;;;5031723;28;20453;-50
2021/06/09 04:58:21;;;;;;;12.90;10.20;;;17.40;99.90;;;;;;5017663;28;20457;-49
2021/06/09 05:00:49;;;;;;;12.57;10.53;;;17.50;99.90;;;;;;5012051;28;20477;-49
2021/06/09 05:03:16;;;;;;;12.23;9.80;;;17.40;99.90;;;;;;5013152;28;20457;-49
2021/06/09 05:05:44;;;;;;;11.00;9.60;;;17.50;99.90;;;;;;5013518;28;20826;-49
2021/06/09 05:08:11;;;;;;;11.13;9.63;;;17.60;99.90;;;;;;5012233;28;20453;-49
2021/06/09 05:10:40;;;;;;;12.03;10.07;;;17.70;99.90;;;;;;5011956;28;20848;-51
2021/06/09 05:13:13;;;;;;;11.93;9.93;;;17.80;99.90;;;;;;5011296;28;20458;-50
2021/06/09 05:15:48;;;;;;;12.43;9.40;;;17.80;99.90;;;;;;5011087;28;20453;-50
2021/06/09 05:18:21;;;;;;;13.50;11.47;;;17.80;99.90;;;;;;5012000;28;20452;-49
2021/06/09 05:20:50;;;;;;;13.40;10.80;;;17.70;99.90;;;;;;5016427;28;20473;-50
2021/06/09 05:23:21;;;;;;;12.63;10.97;;;17.70;99.90;;;;;;5031348;28;20453;-50
2021/06/09 05:25:51;;;;;;;14.67;11.47;;;17.70;99.90;;;;;;5022222;28;21045;-51
2021/06/09 05:28:20;;;;;;;13.30;11.30;;;17.80;99.90;;;;;;5007979;28;20555;-49
2021/06/09 05:30:49;;;;;;;15.90;11.73;;;17.80;99.90;;;;;;5004272;28;20473;-50
2021/06/09 05:33:17;;;;;;;15.67;11.93;;;17.70;99.90;;;;;;5012109;28;20875;-50
2021/06/09 05:35:43;;;;;;;14.90;12.60;;;17.70;99.90;;;;;;5021633;28;20468;-49
2021/06/09 05:38:10;;;;;;;18.40;12.60;;;17.80;99.90;;;;;;5013750;28;20446;-50
2021/06/09 05:40:37;;;;;;;21.73;14.50;;;17.90;99.90;;;;;;5011989;28;20478;-50
2021/06/09 05:43:03;;;;;;;14.73;11.60;;;18.00;99.90;;;;;;5013485;28;20449;-50
2021/06/09 05:45:33;;;;;;;21.50;15.50;;;18.00;99.90;;;;;;5011864;28;20492;-51
2021/06/09 05:48:01;;;;;;;17.87;13.07;;;18.00;99.90;;;;;;5011814;28;20456;-50
2021/06/09 05:50:30;;;;;;;20.47;15.40;;;17.90;99.90;;;;;;5011550;28;20456;-49
2021/06/09 05:52:58;;;;;;;18.80;14.90;;;17.90;99.90;;;;;;5011557;28;20456;-50
2021/06/09 05:55:26;;;;;;;18.37;14.20;;;17.90;99.90;;;;;;5012019;28;20682;-51
2021/06/09 05:57:56;;;;;;;20.07;14.40;;;17.90;99.90;;;;;;5008831;28;20454;-50
2021/06/09 06:00:25;;;;;;;18.47;13.60;;;18.00;99.90;;;;;;5011218;28;20445;-48
2021/06/09 06:02:52;;;;;;;21.23;14.10;;;18.00;99.90;;;;;;5011154;28;20539;-49
2021/06/09 06:05:21;;;;;;;20.70;15.60;;;18.20;99.90;;;;;;5010892;28;20481;-50
2021/06/09 06:07:48;;;;;;;20.63;14.80;;;18.20;99.90;;;;;;5012220;28;20457;-49
2021/06/09 06:10:16;;;;;;;20.83;14.73;;;18.30;99.90;;;;;;5014605;28;20504;-51
2021/06/09 06:12:43;;;;;;;21.30;15.57;;;18.60;99.90;;;;;;5015097;28;20454;-50
2021/06/09 06:15:12;;;;;;;22.23;16.20;;;18.70;99.90;;;;;;5015175;28;20449;-49
2021/06/09 06:17:39;;;;;;;22.30;15.77;;;18.90;99.90;;;;;;5013818;28;20450;-50
2021/06/09 06:20:12;;;;;;;19.10;14.10;;;19.00;99.90;;;;;;5013762;28;20532;-50
2021/06/09 06:22:41;;;;;;;19.13;14.30;;;19.30;99.90;;;;;;5008388;28;21014;-51
2021/06/09 06:25:08;;;;;;;22.90;15.37;;;19.60;99.90;;;;;;5014895;28;21010;-50
2021/06/09 06:27:36;;;;;;;19.87;15.00;;;19.80;99.90;;;;;;5015095;28;20450;-51
2021/06/09 06:30:04;;;;;;;17.43;13.23;;;20.10;99.90;;;;;;5014855;28;20453;-50
2021/06/09 06:32:31;;;;;;;15.20;12.13;;;20.50;99.90;;;;;;5014533;28;20477;-50
2021/06/09 06:34:58;;;;;;;14.93;11.00;;;20.80;99.90;;;;;;5014523;28;20453;-51
2021/06/09 06:37:28;;;;;;;12.47;10.83;;;20.80;99.90;;;;;;5014673;28;21008;-50
2021/06/09 06:39:56;;;;;;;17.73;10.07;;;21.20;99.90;;;;;;5014394;28;20453;-50
2021/06/09 06:42:23;;;;;;;9.60;8.23;;;21.50;99.90;;;;;;5014623;28;20542;-50
2021/06/09 06:44:50;;;;;;;10.23;8.67;;;21.50;99.90;;;;;;5014568;28;20491;-51
2021/06/09 06:47:19;;;;;;;12.43;9.93;;;21.40;99.90;;;;;;5014577;28;20511;-51
2021/06/09 06:49:47;;;;;;;8.97;8.07;;;21.20;99.90;;;;;;5014578;28;20512;-50
2021/06/09 06:52:15;;;;;;;10.47;8.97;;;21.20;99.90;;;;;;5014312;28;20485;-51
2021/06/09 06:54:41;;;;;;;14.60;10.80;;;21.20;99.90;;;;;;5014568;28;20450;-50
2021/06/09 06:57:12;;;;;;;13.90;10.80;;;21.00;99.90;;;;;;5011679;28;20443;-51
2021/06/09 06:59:40;;;;;;;11.70;10.40;;;20.50;99.90;;;;;;5013635;28;20225;-49
2021/06/09 07:02:09;;;;;;;12.90;10.90;;;20.20;99.90;;;;;;5013500;28;20477;-50
2021/06/09 07:04:36;;;;;;;12.27;9.87;;;20.50;99.90;;;;;;5014000;28;20564;-53
2021/06/09 07:07:12;;;;;;;11.73;8.30;;;20.90;99.90;;;;;;5013197;28;20453;-51
2021/06/09 07:09:40;;;;;;;9.23;7.53;;;21.30;99.90;;;;;;5005348;28;20464;-50
2021/06/09 07:12:07;;;;;;;8.87;7.83;;;21.90;99.90;;;;;;5012869;28;20477;-50
2021/06/09 07:14:36;;;;;;;8.80;7.73;;;22.40;99.90;;;;;;5013568;28;20968;-50
2021/06/09 07:17:03;;;;;;;9.80;8.23;;;23.00;99.90;;;;;;5013681;28;20485;-51
2021/06/09 07:19:29;;;;;;;7.83;7.03;;;23.50;99.90;;;;;;5012969;28;20453;-50
2021/06/09 07:21:56;;;;;;;7.30;6.57;;;24.00;99.90;;;;;;5013482;28;20480;-49
2021/06/09 07:24:23;;;;;;;7.77;7.00;;;24.50;99.90;;;;;;5012755;28;20517;-50
2021/06/09 07:26:52;;;;;;;7.13;6.43;;;24.30;99.90;;;;;;5013466;28;20951;-51
2021/06/09 07:29:22;;;;;;;9.40;7.30;;;24.80;99.90;;;;;;5012861;28;20449;-52
2021/06/09 07:31:51;;;;;;;8.60;7.37;;;25.50;99.90;;;;;;5013280;28;20971;-51
2021/06/09 07:34:19;;;;;;;8.27;7.37;;;26.20;99.90;;;;;;5012709;28;20876;-51
2021/06/09 07:36:49;;;;;;;8.83;7.30;;;26.00;99.90;;;;;;5013432;28;20453;-49
2021/06/09 07:39:24;;;;;;;11.83;8.93;;;25.60;99.90;;;;;;5012646;28;20603;-50
2021/06/09 07:41:52;;;;;;;12.23;9.40;;;24.70;99.90;;;;;;5013120;28;20982;-50
2021/06/09 07:44:20;;;;;;;13.00;10.90;;;24.10;99.90;;;;;;5012973;28;20535;-51
2021/06/09 07:46:50;;;;;;;12.87;10.87;;;22.70;99.90;;;;;;5012824;28;20454;-49
2021/06/09 07:49:18;;;;;;;13.13;10.50;;;21.60;99.90;;;;;;5012354;28;20520;-50
2021/06/09 07:51:46;;;;;;;14.30;10.70;;;21.10;99.90;;;;;;5012609;28;20949;-50
2021/06/09 07:54:14;;;;;;;14.37;11.17;;;20.70;99.90;;;;;;5013071;28;20507;-50
2021/06/09 07:56:43;;;;;;;16.47;12.17;;;20.60;99.90;;;;;;5013228;28;20450;-50
2021/06/09 07:59:13;;;;;;;17.33;12.37;;;20.50;99.90;;;;;;5012698;28;20951;-50
2021/06/09 08:01:42;;;;;;;17.00;11.50;;;20.40;99.90;;;;;;5012331;28;20469;-50
2021/06/09 08:04:10;;;;;;;15.37;12.03;;;20.80;99.90;;;;;;5012111;28;20516;-50
2021/06/09 08:06:38;;;;;;;14.70;11.97;;;20.90;99.90;;;;;;5012851;28;20958;-49
2021/06/09 08:09:06;;;;;;;13.77;10.83;;;20.60;99.90;;;;;;5013070;28;20476;-48
2021/06/09 08:11:33;;;;;;;13.90;11.67;;;20.40;99.90;;;;;;5012317;28;20477;-50
2021/06/09 08:14:01;;;;;;;15.10;11.17;;;20.40;99.90;;;;;;5012551;28;20450;-50
2021/06/09 08:16:31;;;;;;;16.87;11.93;;;20.30;99.90;;;;;;5012291;28;20535;-49
2021/06/09 08:18:57;;;;;;;14.80;10.70;;;20.40;99.90;;;;;;5011487;28;20969;-49
2021/06/09 08:21:27;;;;;;;17.33;12.30;;;20.80;99.90;;;;;;5011132;28;20470;-50
2021/06/09 08:23:55;;;;;;;15.30;12.30;;;21.20;99.90;;;;;;5011813;28;20482;-51
2021/06/09 08:26:25;;;;;;;15.47;12.43;;;21.40;99.90;;;;;;5011166;28;20457;-50
2021/06/09 08:28:54;;;;;;;15.63;11.80;;;21.70;99.90;;;;;;5011620;28;20453;-50
2021/06/09 08:31:24;;;;;;;15.70;11.90;;;21.70;99.90;;;;;;5029960;28;20473;-50
2021/06/09 08:33:52;;;;;;;15.77;12.73;;;21.30;99.90;;;;;;5011747;28;20457;-51
2021/06/09 08:36:19;;;;;;;15.67;12.53;;;21.00;99.90;;;;;;5012386;28;20461;-49
2021/06/09 08:38:49;;;;;;;16.47;12.77;;;20.40;99.90;;;;;;5012429;28;20870;-49
2021/06/09 08:41:18;;;;;;;16.50;13.90;;;20.30;99.90;;;;;;5012224;28;20959;-50
2021/06/09 08:43:47;;;;;;;15.20;13.00;;;20.50;99.90;;;;;;5011871;28;20582;-49
2021/06/09 08:46:15;;;;;;;20.73;14.13;;;20.40;99.90;;;;;;5011701;28;20880;-49
2021/06/09 08:48:44;;;;;;;16.53;13.47;;;20.50;99.90;;;;;;5012014;28;20456;-51
2021/06/09 08:51:12;;;;;;;21.30;13.77;;;20.80;99.90;;;;;;5008736;28;20481;-50
2021/06/09 08:53:42;;;;;;;16.17;11.87;;;21.30;99.90;;;;;;5011967;28;20686;-50
2021/06/09 08:56:09;;;;;;;16.37;13.47;;;22.00;99.90;;;;;;5011509;28;20454;-51
2021/06/09 08:58:37;;;;;;;14.97;12.27;;;21.80;99.90;;;;;;5011866;28;20456;-49
2021/06/09 09:01:07;;;;;;;18.03;14.10;;;21.20;99.90;;;;;;5011823;28;20473;-49
2021/06/09 09:03:34;;;;;;;20.23;14.93;;;20.80;99.90;;;;;;5011770;28;20524;-50
2021/06/09 09:06:01;;;;;;;21.23;14.60;;;20.80;99.90;;;;;;5011870;28;20442;-51
2021/06/09 09:08:27;;;;;;;17.50;13.40;;;20.00;99.90;;;;;;5011617;28;20449;-50
2021/06/09 09:10:54;;;;;;;18.20;13.70;;;20.20;99.90;;;;;;5011620;28;20491;-50
2021/06/09 09:13:21;;;;;;;20.47;13.90;;;20.60;99.90;;;;;;5011852;28;20450;-49
2021/06/09 09:15:49;;;;;;;22.40;15.53;;;20.50;99.90;;;;;;5011763;28;20980;-50
2021/06/09 09:18:16;;;;;;;19.60;14.37;;;20.00;99.90;;;;;;5011830;28;20504;-50
2021/06/09 09:20:45;;;;;;;18.07;13.27;;;20.20;99.90;;;;;;5011500;28;20473;-49
2021/06/09 09:23:22;;;;;;;20.50;14.50;;;20.40;99.90;;;;;;5011300;28;20461;-50
2021/06/09 09:25:51;;;;;;;18.50;13.80;;;20.80;99.90;;;;;;5011281;28;20513;-49
2021/06/09 09:28:28;;;;;;;17.60;14.50;;;20.90;99.90;;;;;;5011638;28;20508;-49
2021/06/09 09:31:06;;;;;;;18.50;13.67;;;20.80;99.90;;;;;;5011561;28;20512;-50
2021/06/09 09:33:33;;;;;;;17.23;13.17;;;20.70;99.90;;;;;;5011397;28;21017;-50
2021/06/09 09:36:16;;;;;;;19.07;13.57;;;20.70;99.90;;;;;;5011103;28;20450;-50
2021/06/09 09:38:43;;;;;;;22.83;13.17;;;20.60;99.90;;;;;;5009051;28;20449;-49
2021/06/09 09:41:12;;;;;;;16.13;12.93;;;20.80;99.90;;;;;;5011109;28;20474;-49
2021/06/09 09:43:47;;;;;;;16.40;13.17;;;21.10;99.90;;;;;;5013528;28;20453;-50
2021/06/09 09:46:17;;;;;;;15.80;12.87;;;21.60;99.90;;;;;;5015540;28;20455;-50
2021/06/09 09:49:03;;;;;;;16.10;12.83;;;21.40;99.90;;;;;;5015604;28;20450;-49
2021/06/09 09:51:31;;;;;;;17.37;13.37;;;21.30;99.90;;;;;;5015038;28;20476;-49
2021/06/09 09:53:58;;;;;;;17.70;12.93;;;21.60;99.90;;;;;;5014455;28;20457;-50
2021/06/09 09:56:28;;;;;;;16.77;14.10;;;21.60;99.90;;;;;;5014824;28;20453;-50
2021/06/09 09:58:58;;;;;;;16.30;12.90;;;21.20;99.90;;;;;;5012694;28;20445;-51
2021/06/09 10:01:30;;;;;;;16.00;13.53;;;21.40;99.90;;;;;;5014750;28;20836;-50
2021/06/09 10:03:59;;;;;;;18.47;13.17;;;21.60;99.90;;;;;;5015248;28;20544;-50
2021/06/09 10:06:31;;;;;;;15.50;12.47;;;21.70;99.90;;;;;;5015353;28;20453;-50
2021/06/09 10:09:08;;;;;;;16.13;13.37;;;22.00;99.90;;;;;;5014578;28;20453;-50
2021/06/09 10:11:37;;;;;;;17.43;13.57;;;21.90;99.90;;;;;;5014713;28;20476;-51
2021/06/09 10:14:19;;;;;;;15.30;11.93;;;21.50;99.90;;;;;;5014775;28;20445;-51
2021/06/09 10:16:51;;;;;;;16.33;12.63;;;21.60;99.90;;;;;;5008205;28;20453;-49
2021/06/09 10:19:18;;;;;;;13.53;10.90;;;21.60;99.90;;;;;;5014843;28;20935;-49
2021/06/09 10:21:51;;;;;;;14.03;11.30;;;21.60;99.90;;;;;;5014346;28;20476;-49
2021/06/09 10:24:18;;;;;;;13.67;11.30;;;21.90;99.90;;;;;;5014772;28;20488;-50
2021/06/09 10:26:52;;;;;;;12.30;11.00;;;22.30;99.90;;;;;;5014677;28;20454;-51
2021/06/09 10:29:21;;;;;;;15.80;12.60;;;22.90;99.90;;;;;;5014526;28;20449;-49
2021/06/09 10:31:51;;;;;;;12.87;10.23;;;23.70;99.90;;;;;;5013994;28;20488;-51
2021/06/09 10:34:18;;;;;;;11.50;10.30;;;24.40;99.90;;;;;;5006978;28;20450;-51
2021/06/09 10:36:47;;;;;;;15.40;11.70;;;24.60;99.90;;;;;;5014764;28;20503;-50
2021/06/09 10:39:15;;;;;;;13.37;11.97;;;24.20;99.90;;;;;;5010997;28;20449;-51
2021/06/09 10:41:44;;;;;;;12.20;10.67;;;24.10;99.90;;;;;;5013953;28;20477;-51
2021/06/09 10:44:12;;;;;;;12.47;10.13;;;24.80;99.90;;;;;;5013497;28;20484;-50
2021/06/09 10:46:40;;;;;;;11.03;10.00;;;25.20;99.90;;;;;;5013488;28;20457;-50
2021/06/09 10:49:12;;;;;;;11.60;10.40;;;25.20;99.90;;;;;;5014524;28;20512;-49
2021/06/09 10:51:39;;;;;;;13.27;10.70;;;25.50;99.90;;;;;;5013849;28;20488;-49
2021/06/09 10:54:10;;;;;;;11.60;10.37;;;24.80;99.90;;;;;;5014025;28;20500;-49
2021/06/09 10:56:37;;;;;;;14.90;12.80;;;25.00;99.90;;;;;;5014080;28;20461;-48
2021/06/09 10:59:04;;;;;;;11.47;10.27;;;24.40;99.90;;;;;;5014055;28;20953;-50
2021/06/09 11:01:32;;;;;;;11.50;10.30;;;24.10;99.90;;;;;;5013906;28;20465;-49
2021/06/09 11:04:00;;;;;;;11.63;10.20;;;24.30;99.90;;;;;;5014019;28;20970;-49
2021/06/09 11:06:43;;;;;;;11.63;10.30;;;24.60;99.90;;;;;;5013984;28;20450;-51
2021/06/09 11:09:18;;;;;;;12.70;11.10;;;25.10;99.90;;;;;;5045435;22;20500;-56
2021/06/09 11:11:45;;;;;;;10.83;9.73;;;25.10;99.90;;;;;;5045906;28;20455;-56
2021/06/09 11:14:23;;;;;;;12.80;10.30;;;24.80;99.90;;;;;;5053549;28;20966;-56
2021/06/09 11:16:51;;;;;;;12.20;10.90;;;25.00;99.90;;;;;;5033577;28;20452;-57
2021/06/09 11:19:35;;;;;;;12.53;11.13;;;25.10;99.90;;;;;;5033694;28;20579;-56
2021/06/09 11:22:17;;;;;;;12.93;11.53;;;24.70;99.90;;;;;;5033338;28;20514;-56
2021/06/09 11:25:08;;;;;;;14.60;12.00;;;24.50;99.90;;;;;;5050008;28;20479;-56
2021/06/09 11:27:36;;;;;;;13.83;12.43;;;24.30;99.90;;;;;;5053540;28;20490;-56
2021/06/09 11:30:53;;;;;;;15.83;12.00;;;24.30;99.90;;;;;;5053317;28;20468;-56
2021/06/09 11:33:53;;;;;;;13.80;12.40;;;24.30;99.90;;;;;;5053256;28;20440;-56
2021/06/09 11:36:39;;;;;;;12.80;11.00;;;24.00;99.90;;;;;;5042065;28;20957;-56
2021/06/09 11:39:23;;;;;;;11.47;9.67;;;24.50;99.90;;;;;;5033354;28;20555;-56
2021/06/09 11:41:51;;;;;;;13.77;12.37;;;25.00;99.90;;;;;;5032603;28;20469;-57
2021/06/09 11:44:32;;;;;;;12.30;11.00;;;25.10;99.90;;;;;;5032852;28;21067;-56
2021/06/09 11:47:19;;;;;;;11.53;10.20;;;25.30;99.90;;;;;;5032746;28;21010;-56
2021/06/09 11:49:47;;;;;;;11.97;10.87;;;25.30;99.90;;;;;;5045461;28;21098;-57
2021/06/09 11:52:15;;;;;;;12.27;10.97;;;25.30;99.90;;;;;;5038701;28;20452;-56
2021/06/09 11:54:43;;;;;;;11.00;9.90;;;25.20;99.90;;;;;;5036693;28;20498;-56
2021/06/09 11:57:17;;;;;;;12.60;10.17;;;25.10;99.90;;;;;;5053079;28;20456;-56
2021/06/09 11:59:44;;;;;;;12.03;10.10;;;24.90;99.90;;;;;;5052391;28;20476;-56
2021/06/09 12:02:18;;;;;;;11.90;10.70;;;24.80;99.90;;;;;;5052319;28;20888;-57
2021/06/09 12:04:47;;;;;;;12.90;11.60;;;24.60;99.90;;;;;;5051293;28;20852;-56
2021/06/09 12:07:20;;;;;;;15.20;13.30;;;24.30;99.90;;;;;;5049419;28;20444;-56
2021/06/09 12:09:50;;;;;;;13.17;11.43;;;23.70;99.90;;;;;;5038178;28;20550;-56
2021/06/09 12:12:18;;;;;;;11.87;10.67;;;23.60;99.90;;;;;;5052314;28;20463;-57
2021/06/09 12:14:46;;;;;;;14.30;10.43;;;23.80;99.90;;;;;;5052249;28;20440;-56
2021/06/09 12:17:22;;;;;;;12.97;11.63;;;24.30;99.90;;;;;;5051896;28;20455;-56
2021/06/09 12:19:51;;;;;;;12.57;11.23;;;24.30;99.90;;;;;;5038293;28;20868;-57
2021/06/09 12:22:21;;;;;;;11.90;10.70;;;23.90;99.90;;;;;;5038135;28;20451;-56
2021/06/09 12:25:01;;;;;;;12.20;11.00;;;23.80;99.90;;;;;;5051881;28;20475;-56
2021/06/09 12:27:29;;;;;;;12.20;11.00;;;24.10;99.90;;;;;;5052135;28;20451;-57
2021/06/09 12:29:55;;;;;;;12.57;11.33;;;24.20;99.90;;;;;;5051993;28;20981;-57
2021/06/09 12:32:25;;;;;;;12.00;10.80;;;24.30;99.90;;;;;;5051803;28;20946;-56
2021/06/09 12:34:57;;;;;;;12.50;11.20;;;24.50;99.90;;;;;;5051716;28;20983;-57
2021/06/09 12:37:26;;;;;;;11.73;10.57;;;24.60;99.90;;;;;;5051596;28;20565;-57
2021/06/09 12:40:03;;;;;;;15.87;12.20;;;24.60;99.90;;;;;;5039361;28;20835;-57
2021/06/09 12:42:30;;;;;;;11.80;10.60;;;24.30;99.90;;;;;;5031744;28;20452;-57